createdAt,value
2022-08-12T00:01:03.334Z,3.40
2022-08-12T00:03:51.247Z,3.60
2022-08-12T00:06:39.488Z,5.10
2022-08-12T00:09:26.790Z,2.00
2022-08-12T00:12:13.487Z,4.30
2022-08-12T00:15:01.103Z,2.60
2022-08-12T00:17:47.095Z,3.60
2022-08-12T00:20:32.521Z,5.40
2022-08-12T00:23:18.395Z,6.50
2022-08-12T00:26:20.517Z,2.20
2022-08-12T00:29:13.887Z,6.10
2022-08-12T00:32:01.456Z,3.50
2022-08-12T00:34:49.663Z,3.40
2022-08-12T00:37:39.287Z,4.10
2022-08-12T00:40:28.374Z,4.00
2022-08-12T00:42:57.320Z,2.40
2022-08-12T00:45:24.967Z,7.40
2022-08-12T00:47:53.672Z,4.90
2022-08-12T00:50:22.744Z,5.30
2022-08-12T00:52:52.167Z,2.90
2022-08-12T00:55:20.169Z,2.70
2022-08-12T00:57:50.493Z,5.70
2022-08-12T01:00:23.583Z,3.30
2022-08-12T01:02:58.251Z,2.70
2022-08-12T01:05:45.294Z,2.90
2022-08-12T01:08:31.591Z,3.30
2022-08-12T01:11:17.469Z,4.30
2022-08-12T01:13:48.622Z,6.40
2022-08-12T01:16:22.894Z,3.30
2022-08-12T01:18:52.555Z,2.60
2022-08-12T01:21:28.368Z,4.90
2022-08-12T01:24:30.877Z,6.10
2022-08-12T01:27:00.531Z,2.60
2022-08-12T01:29:32.783Z,5.40
2022-08-12T01:32:05.636Z,3.70
2022-08-12T01:34:37.773Z,4.30
2022-08-12T01:37:07.839Z,5.00
2022-08-12T01:40:34.097Z,4.60
2022-08-12T01:42:43.699Z,5.10
2022-08-12T01:45:12.581Z,3.20
2022-08-12T01:48:29.993Z,3.80
2022-08-12T01:52:15.841Z,1.80
2022-08-12T01:54:38.788Z,2.60
2022-08-12T01:57:57.770Z,3.00
2022-08-12T02:00:54.918Z,2.60
2022-08-12T02:04:03.971Z,3.20
2022-08-12T02:07:11.769Z,2.20
2022-08-12T02:10:50.525Z,2.50
2022-08-12T02:13:14.371Z,4.80
2022-08-12T02:16:07.071Z,3.50
2022-08-12T02:18:39.985Z,3.90
2022-08-12T02:21:33.390Z,2.10
2022-08-12T02:24:02.132Z,5.10
2022-08-12T02:26:33.044Z,4.40
2022-08-12T02:29:02.059Z,2.70
2022-08-12T02:31:30.760Z,3.60
2022-08-12T02:33:59.365Z,3.90
2022-08-12T02:36:27.978Z,2.60
2022-08-12T02:38:59.373Z,4.40
2022-08-12T02:41:30.343Z,4.80
2022-08-12T02:44:01.121Z,6.10
2022-08-12T02:46:34.805Z,6.80
2022-08-12T02:49:06.619Z,4.40
2022-08-12T02:51:41.221Z,3.10
2022-08-12T02:54:08.733Z,3.70
2022-08-12T02:56:38.276Z,3.50
2022-08-12T02:59:06.944Z,3.60
2022-08-12T03:01:35.425Z,4.20
2022-08-12T03:04:15.401Z,4.10
2022-08-12T03:07:14.625Z,3.90
2022-08-12T03:10:04.722Z,4.30
2022-08-12T03:12:47.476Z,5.20
2022-08-12T03:15:18.400Z,5.10
2022-08-12T03:18:26.309Z,2.90
2022-08-12T03:20:49.183Z,2.60
2022-08-12T03:23:21.641Z,4.40
2022-08-12T03:25:58.929Z,3.40
2022-08-12T03:28:45.039Z,2.80
2022-08-12T03:31:11.832Z,6.90
2022-08-12T03:33:43.928Z,3.70
2022-08-12T03:36:28.915Z,10.10
2022-08-12T03:39:17.600Z,3.70
2022-08-12T03:42:02.741Z,4.00
2022-08-12T03:45:01.863Z,4.40
2022-08-12T03:47:53.159Z,4.20
2022-08-12T03:50:39.744Z,7.20
2022-08-12T03:53:28.143Z,6.60
2022-08-12T03:56:15.716Z,5.80
2022-08-12T03:59:01.130Z,4.90
2022-08-12T04:01:27.942Z,6.40
2022-08-12T04:03:55.247Z,5.80
2022-08-12T04:06:34.743Z,5.40
2022-08-12T04:09:16.296Z,9.00
2022-08-12T04:12:03.966Z,5.80
2022-08-12T04:14:32.483Z,10.20
2022-08-12T04:16:59.977Z,6.40
2022-08-12T04:19:27.075Z,6.00
2022-08-12T04:22:01.919Z,8.10
2022-08-12T04:24:35.350Z,8.50
2022-08-12T04:27:08.868Z,7.30
2022-08-12T04:30:21.111Z,4.30
2022-08-12T04:32:26.149Z,8.10
2022-08-12T04:34:54.100Z,6.90
2022-08-12T04:37:21.217Z,5.00
2022-08-12T04:39:49.068Z,5.40
2022-08-12T04:42:16.303Z,6.10
2022-08-12T04:44:45.495Z,6.40
2022-08-12T04:47:15.339Z,5.90
2022-08-12T04:49:45.536Z,5.10
2022-08-12T04:52:13.051Z,4.80
2022-08-12T04:54:39.845Z,8.30
2022-08-12T04:57:09.942Z,7.20
2022-08-12T04:59:46.892Z,5.20
2022-08-12T05:02:21.932Z,4.50
2022-08-12T05:04:51.994Z,6.10
2022-08-12T05:07:20.280Z,6.80
2022-08-12T05:10:01.948Z,5.50
2022-08-12T05:12:43.112Z,10.60
2022-08-12T05:15:27.908Z,5.80
2022-08-12T05:17:59.893Z,5.80
2022-08-12T05:20:29.546Z,9.40
2022-08-12T05:23:13.441Z,7.20
2022-08-12T05:25:45.961Z,7.20
2022-08-12T05:28:16.389Z,10.80
2022-08-12T05:30:44.869Z,10.10
2022-08-12T05:33:13.475Z,10.50
2022-08-12T05:35:43.274Z,9.60
2022-08-12T05:38:34.436Z,11.10
2022-08-12T05:41:04.414Z,5.00
2022-08-12T05:43:34.296Z,8.20
2022-08-12T05:46:01.094Z,10.00
2022-08-12T05:48:28.430Z,6.10
2022-08-12T05:50:56.925Z,7.30
2022-08-12T05:53:24.296Z,7.60
2022-08-12T05:55:54.196Z,7.70
2022-08-12T05:58:21.370Z,5.50
2022-08-12T06:00:48.188Z,6.00
2022-08-12T06:03:19.413Z,7.60
2022-08-12T06:05:55.032Z,8.70
2022-08-12T06:08:23.207Z,6.70
2022-08-12T06:10:50.590Z,6.00
2022-08-12T06:13:28.526Z,5.50
2022-08-12T06:16:11.465Z,5.20
2022-08-12T06:18:40.945Z,9.20
2022-08-12T06:21:09.242Z,8.50
2022-08-12T06:23:42.317Z,7.80
2022-08-12T06:26:13.094Z,10.00
2022-08-12T06:28:41.451Z,7.50
2022-08-12T06:31:25.242Z,5.90
2022-08-12T06:33:59.580Z,7.60
2022-08-12T06:36:40.936Z,6.40
2022-08-12T06:39:15.454Z,9.20
2022-08-12T06:42:22.712Z,5.40
2022-08-12T06:44:51.008Z,8.00
2022-08-12T06:47:19.726Z,6.40
2022-08-12T06:49:46.787Z,5.50
2022-08-12T06:52:13.522Z,4.30
2022-08-12T06:54:41.519Z,5.00
2022-08-12T06:58:04.410Z,5.10
2022-08-12T06:59:54.911Z,6.70
2022-08-12T07:02:23.178Z,4.80
2022-08-12T07:04:50.290Z,6.60
2022-08-12T07:07:18.753Z,7.20
2022-08-12T07:10:03.675Z,7.30
2022-08-12T07:12:32.495Z,6.80
2022-08-12T07:15:02.154Z,5.80
2022-08-12T07:17:36.756Z,8.10
2022-08-12T07:20:29.539Z,6.30
2022-08-12T07:22:59.719Z,8.40
2022-08-12T07:25:40.664Z,6.30
2022-08-12T07:28:19.936Z,17.10
2022-08-12T07:30:51.493Z,6.20
2022-08-12T07:33:22.540Z,5.70
2022-08-12T07:35:52.982Z,5.40
2022-08-12T07:38:35.070Z,5.10
2022-08-12T07:41:05.760Z,5.80
2022-08-12T07:43:36.710Z,4.90
2022-08-12T07:46:09.305Z,4.90
2022-08-12T07:48:46.565Z,5.30
2022-08-12T07:51:24.707Z,6.90
2022-08-12T07:54:01.183Z,5.60
2022-08-12T07:56:31.801Z,6.60
2022-08-12T07:59:01.272Z,5.10
2022-08-12T08:01:28.447Z,5.70
2022-08-12T08:04:18.712Z,6.80
2022-08-12T08:06:46.746Z,7.40
2022-08-12T08:09:15.961Z,6.10
2022-08-12T08:12:01.436Z,5.10
2022-08-12T08:14:29.502Z,6.00
2022-08-12T08:17:03.869Z,8.30
2022-08-12T08:19:32.807Z,9.30
2022-08-12T08:22:00.051Z,6.40
2022-08-12T08:24:29.185Z,9.50
2022-08-12T08:27:00.612Z,6.50
2022-08-12T08:29:29.502Z,13.10
2022-08-12T08:32:00.107Z,7.40
2022-08-12T08:34:53.085Z,10.20
2022-08-12T08:37:17.264Z,7.20
2022-08-12T08:39:44.456Z,10.10
2022-08-12T08:42:30.053Z,8.80
2022-08-12T08:44:58.961Z,6.70
2022-08-12T08:47:26.192Z,6.70
2022-08-12T08:49:53.091Z,11.50
2022-08-12T08:52:38.888Z,8.90
2022-08-12T08:55:09.582Z,9.90
2022-08-12T08:57:43.600Z,7.70
2022-08-12T09:00:19.942Z,12.60
2022-08-12T09:02:49.416Z,14.80
2022-08-12T09:05:26.129Z,10.20
2022-08-12T09:08:12.245Z,9.80
2022-08-12T09:10:45.238Z,8.00
2022-08-12T09:13:29.222Z,10.50
2022-08-12T09:16:19.976Z,18.10
2022-08-12T09:18:52.601Z,11.40
2022-08-12T09:21:23.177Z,9.20
2022-08-12T09:24:00.490Z,7.70
2022-08-12T09:26:45.983Z,11.20
2022-08-12T09:30:08.616Z,6.80
2022-08-12T09:32:29.314Z,5.30
2022-08-12T09:34:56.794Z,6.60
2022-08-12T13:28:55.983Z,8.60
2022-08-12T13:31:25.121Z,3.10
2022-08-12T13:34:33.784Z,3.20
2022-08-12T13:36:41.328Z,2.90
2022-08-12T13:39:08.299Z,3.90
2022-08-12T13:41:36.014Z,6.80
2022-08-12T13:44:06.687Z,4.60
2022-08-12T13:46:39.023Z,3.20
2022-08-12T13:49:09.374Z,6.00
2022-08-12T13:51:41.046Z,8.30
2022-08-12T13:54:14.016Z,18.00
2022-08-12T13:56:41.071Z,7.20
2022-08-12T13:59:08.745Z,8.40
2022-08-12T14:01:40.275Z,10.50
2022-08-12T14:04:12.292Z,14.40
2022-08-12T14:06:40.666Z,15.50
2022-08-12T14:09:17.899Z,10.80
2022-08-12T14:11:58.558Z,9.50
2022-08-12T14:14:31.065Z,8.90
2022-08-12T14:17:00.504Z,15.70
2022-08-12T14:19:36.019Z,24.00
2022-08-12T14:22:07.029Z,19.20
2022-08-12T14:24:40.958Z,11.10
2022-08-12T14:27:10.332Z,12.90
2022-08-12T14:30:05.659Z,8.70
2022-08-12T14:32:35.490Z,6.10
2022-08-12T14:35:05.786Z,21.10
2022-08-12T14:37:56.011Z,23.50
2022-08-12T14:40:22.815Z,26.20
2022-08-12T14:42:55.740Z,20.10
2022-08-12T14:45:45.195Z,13.30
2022-08-12T14:48:13.324Z,8.80
2022-08-12T14:51:03.216Z,10.70
2022-08-12T14:55:24.794Z,10.50
2022-08-12T14:59:24.347Z,11.10
2022-08-12T15:01:54.549Z,11.40
2022-08-12T15:04:26.205Z,9.10
2022-08-12T15:06:53.362Z,13.40
2022-08-12T15:09:29.179Z,15.70
2022-08-12T15:12:04.043Z,16.50
2022-08-12T15:14:32.064Z,13.50
2022-08-12T15:17:01.277Z,11.20
2022-08-12T15:20:28.765Z,8.40
2022-08-12T15:22:35.298Z,8.90
2022-08-12T15:25:07.651Z,6.80
2022-08-12T15:28:04.780Z,7.90
2022-08-12T15:30:31.868Z,6.30
2022-08-12T15:32:59.272Z,5.90
2022-08-12T15:35:31.141Z,8.70
2022-08-12T15:38:17.282Z,7.60
2022-08-12T15:40:52.511Z,12.00
2022-08-12T15:43:51.286Z,14.40
2022-08-12T15:46:07.699Z,13.00
2022-08-12T15:48:43.541Z,7.10
2022-08-12T15:51:59.040Z,5.00
2022-08-12T15:54:33.612Z,7.40
2022-08-12T15:57:07.701Z,8.70
2022-08-12T16:00:00.149Z,6.90
2022-08-12T16:02:27.154Z,5.00
2022-08-12T16:04:56.471Z,5.10
2022-08-12T16:07:30.138Z,4.80
2022-08-12T16:10:04.941Z,3.90
2022-08-12T16:12:37.873Z,4.10
2022-08-12T16:15:07.304Z,4.20
2022-08-12T16:18:18.538Z,7.50
2022-08-12T16:20:33.025Z,5.40
2022-08-12T16:23:35.961Z,6.30
2022-08-12T16:26:00.824Z,6.80
2022-08-12T16:28:32.154Z,6.80
2022-08-12T16:31:00.121Z,15.60
2022-08-12T16:33:59.048Z,19.50
2022-08-12T16:36:29.521Z,9.80
2022-08-12T16:38:56.973Z,5.70
2022-08-12T16:41:23.897Z,7.20
2022-08-12T16:43:54.812Z,12.20
2022-08-12T16:46:32.202Z,12.80
2022-08-12T16:49:09.278Z,10.90
2022-08-12T16:51:45.907Z,12.90
2022-08-12T16:54:16.022Z,9.80
2022-08-12T16:56:55.066Z,13.00
2022-08-12T16:59:30.994Z,8.50
2022-08-12T17:02:31.902Z,7.10
2022-08-12T17:05:04.312Z,8.20
2022-08-12T17:07:36.540Z,5.80
2022-08-12T17:10:12.072Z,6.80
2022-08-12T17:12:39.159Z,6.80
2022-08-12T17:15:50.295Z,7.80
2022-08-12T17:18:39.489Z,8.90
2022-08-12T17:20:47.348Z,6.50
2022-08-12T17:23:16.751Z,7.40
2022-08-12T17:25:50.588Z,6.50
2022-08-12T17:28:18.623Z,5.20
2022-08-12T17:30:57.190Z,5.40
2022-08-12T17:33:27.734Z,5.40
2022-08-12T17:36:01.698Z,6.40
2022-08-12T17:38:30.795Z,11.40
2022-08-12T17:40:58.154Z,7.50
2022-08-12T17:43:55.649Z,5.90
2022-08-12T17:46:23.618Z,7.50
2022-08-12T17:48:54.942Z,6.20
2022-08-12T17:51:24.630Z,4.90
2022-08-12T17:54:11.279Z,7.20
2022-08-12T17:56:43.319Z,5.30
2022-08-12T17:59:12.516Z,5.90
2022-08-12T18:01:46.032Z,5.30
2022-08-12T18:04:22.755Z,5.40
2022-08-12T18:07:01.997Z,4.00
2022-08-12T18:09:31.976Z,5.60
2022-08-12T18:12:26.952Z,4.30
2022-08-12T18:15:09.453Z,3.70
2022-08-12T18:17:39.474Z,3.90
2022-08-12T18:20:09.355Z,5.60
2022-08-12T18:22:43.011Z,3.50
2022-08-12T18:26:12.573Z,3.20
2022-08-12T18:28:15.553Z,4.00
2022-08-12T18:30:53.071Z,4.10
2022-08-12T18:33:26.705Z,4.10
2022-08-12T18:35:56.728Z,3.80
2022-08-12T18:38:25.538Z,9.10
2022-08-12T18:41:20.855Z,5.90
2022-08-12T18:44:09.916Z,5.60
2022-08-12T18:46:57.836Z,5.00
2022-08-12T18:49:40.664Z,8.00
2022-08-12T18:52:11.540Z,5.00
2022-08-12T18:54:54.104Z,3.90
2022-08-12T18:57:45.781Z,3.80
2022-08-12T19:00:21.649Z,5.20
2022-08-12T19:02:51.034Z,5.20
2022-08-12T19:05:17.942Z,7.00
2022-08-12T19:08:03.766Z,4.10
2022-08-12T19:10:32.296Z,4.90
2022-08-12T19:13:23.250Z,4.70
2022-08-12T19:16:01.542Z,3.50
2022-08-12T19:18:31.328Z,5.30
2022-08-12T19:21:06.298Z,5.10
2022-08-12T19:23:38.935Z,4.70
2022-08-12T19:26:12.248Z,5.20
2022-08-12T19:28:40.576Z,5.80
2022-08-12T19:31:55.650Z,6.00
2022-08-12T19:35:53.872Z,5.30
2022-08-12T19:38:03.247Z,4.80
2022-08-12T19:40:31.640Z,7.70
2022-08-12T19:43:19.029Z,7.90
2022-08-12T19:45:56.635Z,11.20
2022-08-12T19:48:30.746Z,7.00
2022-08-12T19:51:09.091Z,5.60
2022-08-12T19:53:57.297Z,7.30
2022-08-12T19:56:29.822Z,6.00
2022-08-12T19:59:18.663Z,5.50
2022-08-12T20:02:02.337Z,6.20
2022-08-12T20:04:32.815Z,8.20
2022-08-12T20:07:00.552Z,6.10
2022-08-12T20:09:39.862Z,6.50
2022-08-12T20:12:11.335Z,5.60
2022-08-12T20:14:45.669Z,6.40
2022-08-12T20:17:14.082Z,7.70
2022-08-12T20:20:01.111Z,10.30
2022-08-12T20:22:33.549Z,8.10
2022-08-12T20:25:07.282Z,8.10
2022-08-12T20:28:02.914Z,8.60
2022-08-12T20:30:37.778Z,10.80
2022-08-12T20:33:19.144Z,10.50
2022-08-12T20:36:13.784Z,8.60
2022-08-12T20:38:40.083Z,7.10
2022-08-12T20:41:18.987Z,9.80
2022-08-12T20:43:49.483Z,7.90
2022-08-12T20:46:19.997Z,7.20
2022-08-12T20:48:55.146Z,6.90
2022-08-12T20:51:27.631Z,6.90
2022-08-12T20:53:59.340Z,8.30
2022-08-12T20:56:34.924Z,9.00
2022-08-12T20:59:11.001Z,10.70
2022-08-12T21:01:47.723Z,12.40
2022-08-12T21:04:38.394Z,11.40
2022-08-12T21:07:10.458Z,9.30
2022-08-12T21:09:55.842Z,9.70
2022-08-12T21:12:30.943Z,7.70
2022-08-12T21:15:16.921Z,6.10
2022-08-12T21:18:12.016Z,7.60
2022-08-12T21:20:54.397Z,4.90
2022-08-12T21:23:22.842Z,7.90
2022-08-12T21:25:54.085Z,6.90
2022-08-12T21:28:27.597Z,6.10
2022-08-12T21:32:35.151Z,7.10
2022-08-12T21:34:07.756Z,8.40
2022-08-12T21:36:40.060Z,6.20
2022-08-12T21:39:18.669Z,7.00
2022-08-12T21:41:50.108Z,5.50
2022-08-12T21:44:24.135Z,5.70
2022-08-12T21:47:21.591Z,8.90
2022-08-12T21:50:06.775Z,7.90
2022-08-12T21:52:43.838Z,6.60
2022-08-12T21:55:17.845Z,7.00
2022-08-12T21:57:53.262Z,8.50
2022-08-12T22:00:32.438Z,9.30
2022-08-12T22:03:25.005Z,7.70
2022-08-12T22:06:30.454Z,8.40
2022-08-12T22:09:20.831Z,8.00
2022-08-12T22:11:58.657Z,6.40
2022-08-12T22:14:29.751Z,10.10
2022-08-12T22:16:57.944Z,8.80
2022-08-12T22:19:25.141Z,7.50
2022-08-12T22:21:56.289Z,9.70
2022-08-12T22:24:29.925Z,7.80
2022-08-12T22:27:22.803Z,11.40
2022-08-12T22:30:08.410Z,9.20
2022-08-12T22:32:47.618Z,10.80
2022-08-12T22:35:56.262Z,5.90
2022-08-12T22:38:25.064Z,7.00
2022-08-12T22:41:00.754Z,6.70
2022-08-12T22:43:59.634Z,8.30
2022-08-12T22:46:52.512Z,9.40
2022-08-12T22:49:36.782Z,6.80
2022-08-12T22:52:18.691Z,6.60
2022-08-12T22:55:03.161Z,9.20
2022-08-12T22:57:53.555Z,5.60
2022-08-12T23:00:23.953Z,6.30
2022-08-12T23:03:02.825Z,7.90
2022-08-12T23:05:56.750Z,5.30
2022-08-12T23:08:29.979Z,6.00
2022-08-12T23:11:00.866Z,5.90
2022-08-12T23:13:55.539Z,5.30
2022-08-12T23:16:31.608Z,5.50
2022-08-12T23:19:10.787Z,6.10
2022-08-12T23:22:04.909Z,6.10
2022-08-12T23:24:55.654Z,6.90
2022-08-12T23:27:50.638Z,4.30
2022-08-12T23:30:32.428Z,5.90
2022-08-12T23:33:20.080Z,5.00
2022-08-12T23:36:02.870Z,4.60
2022-08-12T23:38:32.590Z,6.80
2022-08-12T23:41:06.006Z,6.10
2022-08-12T23:43:40.804Z,4.10
2022-08-12T23:46:18.574Z,4.70
2022-08-12T23:48:51.603Z,5.00
2022-08-12T23:51:32.541Z,4.90
2022-08-12T23:54:10.143Z,4.60
2022-08-12T23:56:44.818Z,5.80
2022-08-12T23:59:16.616Z,5.30
